Time;durP1;ratioP1;P1;durP2;ratioP2;P2;SDS_P1;SDS_P2;PMS_P1;PMS_P2;Temp;Humidity;BMP_temperature;BMP_pressure;BME280_temperature;BME280_humidity;BME280_pressure;Samples;Min_cycle;Max_cycle;Signal;HPM_P1;HPM_P2
2022/01/21 00:01:13;;;;;;;29.60;3.53;;;1.60;99.90;;;;;;5054044;28;20025;-67
2022/01/21 00:03:39;;;;;;;20.27;4.15;;;1.60;99.90;;;;;;5055157;28;20025;-67
2022/01/21 00:06:08;;;;;;;16.00;3.63;;;1.60;99.90;;;;;;5055150;28;20151;-67
2022/01/21 00:08:38;;;;;;;22.20;3.20;;;1.60;99.90;;;;;;5054802;28;20478;-67
2022/01/21 00:11:04;;;;;;;19.30;4.10;;;1.50;99.90;;;;;;5055255;28;20021;-67
2022/01/21 00:13:34;;;;;;;16.20;3.80;;;1.50;99.90;;;;;;5054765;28;20498;-68
2022/01/21 00:16:05;;;;;;;18.65;3.60;;;1.50;99.90;;;;;;5054853;28;20024;-67
2022/01/21 00:18:32;;;;;;;21.17;4.68;;;1.50;99.90;;;;;;5054706;28;20021;-67
2022/01/21 00:31:55;;;;;;;25.35;4.22;;;1.50;99.90;;;;;;5054916;28;20436;-68
2022/01/21 00:34:21;;;;;;;19.55;3.22;;;1.50;99.90;;;;;;5054162;28;20033;-68
2022/01/21 00:36:46;;;;;;;25.10;3.10;;;1.40;99.90;;;;;;5054507;28;20021;-68
2022/01/21 00:39:12;;;;;;;22.83;3.80;;;1.40;99.90;;;;;;5036171;28;20025;-68
2022/01/21 00:41:46;;;;;;;18.38;3.08;;;1.40;99.90;;;;;;5054563;28;20075;-68
2022/01/21 00:44:12;;;;;;;13.43;3.85;;;1.40;99.90;;;;;;5054514;28;20017;-68
2022/01/21 00:46:37;;;;;;;14.05;2.50;;;1.40;99.90;;;;;;5055198;28;20032;-67
2022/01/21 00:49:03;;;;;;;16.30;3.83;;;1.40;99.90;;;;;;5054184;28;20104;-68
2022/01/21 00:51:29;;;;;;;24.30;4.00;;;1.30;99.90;;;;;;5054949;28;20029;-67
2022/01/21 00:53:55;;;;;;;10.02;2.33;;;1.30;99.90;;;;;;5054457;28;20025;-68
2022/01/21 00:56:20;;;;;;;11.75;2.70;;;1.40;99.90;;;;;;5054674;28;20033;-69
2022/01/21 00:58:46;;;;;;;13.98;3.05;;;1.30;99.90;;;;;;5055175;28;20104;-68
2022/01/21 01:01:11;;;;;;;20.33;3.22;;;1.30;99.90;;;;;;5054588;28;20021;-67
2022/01/21 01:03:37;;;;;;;16.20;3.22;;;1.30;99.90;;;;;;5054640;28;20078;-68
2022/01/21 01:06:03;;;;;;;17.02;2.85;;;1.30;99.90;;;;;;5054271;28;20035;-68
2022/01/21 01:08:29;;;;;;;22.88;3.58;;;1.20;99.90;;;;;;5036081;28;20069;-68
2022/01/21 01:21:30;;;;;;;17.63;2.42;;;1.20;99.90;;;;;;5054255;28;20060;-69
2022/01/21 01:29:19;;;;;;;20.60;2.20;;;1.20;99.90;;;;;;5053847;28;20032;-67
2022/01/21 01:31:45;;;;;;;14.30;3.10;;;1.20;99.90;;;;;;5053667;28;20025;-68
2022/01/21 01:34:11;;;;;;;16.38;2.75;;;1.20;99.90;;;;;;5053462;28;20082;-68
2022/01/21 01:36:37;;;;;;;16.15;2.78;;;1.20;99.90;;;;;;5053647;28;20470;-68
2022/01/21 01:39:28;;;;;;;18.00;2.72;;;1.30;99.90;;;;;;5053714;28;20017;-68
2022/01/21 01:42:13;;;;;;;8.60;2.83;;;1.20;99.90;;;;;;5055679;28;20071;-68
2022/01/21 01:50:25;;;;;;;12.93;3.15;;;1.30;99.90;;;;;;5053289;28;20090;-68
2022/01/21 01:52:52;;;;;;;17.13;2.97;;;1.40;99.90;;;;;;5053635;28;20036;-68
2022/01/21 01:55:17;;;;;;;21.52;3.72;;;1.40;99.90;;;;;;5053246;28;20120;-68
2022/01/21 01:57:43;;;;;;;17.30;3.35;;;1.40;99.90;;;;;;5052960;28;20061;-68
2022/01/21 02:00:09;;;;;;;15.60;2.58;;;1.40;99.90;;;;;;5052942;28;20037;-68
2022/01/21 02:02:34;;;;;;;12.90;2.47;;;1.50;99.90;;;;;;5053432;28;20078;-68
2022/01/21 02:05:00;;;;;;;17.65;2.67;;;1.50;99.90;;;;;;5053190;28;20108;-68
2022/01/21 02:07:25;;;;;;;10.00;2.60;;;1.50;99.90;;;;;;5052940;28;20025;-68
2022/01/21 02:09:51;;;;;;;11.55;3.20;;;1.50;99.90;;;;;;5053126;28;20025;-69
2022/01/21 02:12:17;;;;;;;17.65;3.13;;;1.50;99.90;;;;;;5053224;28;20025;-68
2022/01/21 02:14:49;;;;;;;14.98;3.08;;;1.60;99.90;;;;;;5053003;28;20029;-68
2022/01/21 02:21:27;;;;;;;21.90;2.88;;;1.60;99.90;;;;;;5053064;28;20028;-68
2022/01/21 02:22:48;;;;;;;17.67;3.13;;;1.70;99.90;;;;;;5053161;28;20048;-68
2022/01/21 02:25:17;;;;;;;13.68;2.75;;;1.70;99.90;;;;;;5055610;28;20048;-68
2022/01/21 02:27:48;;;;;;;13.27;3.30;;;1.80;99.90;;;;;;5057186;28;20033;-66
2022/01/21 02:30:19;;;;;;;13.00;2.25;;;1.80;99.90;;;;;;5057051;28;20017;-67
2022/01/21 02:32:50;;;;;;;13.52;2.25;;;1.90;99.90;;;;;;5056835;28;20049;-67
2022/01/21 02:35:16;;;;;;;16.15;2.00;;;2.00;99.90;;;;;;5057149;28;20037;-67
2022/01/21 02:37:42;;;;;;;18.02;3.55;;;2.00;99.90;;;;;;5056789;28;20469;-67
2022/01/21 02:40:10;;;;;;;23.88;3.30;;;2.00;99.90;;;;;;5056473;28;20037;-67
2022/01/21 02:42:35;;;;;;;15.07;2.85;;;2.10;99.90;;;;;;5056418;28;20479;-67
2022/01/21 02:45:06;;;;;;;10.55;2.30;;;2.10;99.90;;;;;;5038616;28;20060;-67
2022/01/21 02:47:32;;;;;;;21.77;2.88;;;2.10;99.90;;;;;;5056816;28;20044;-67
2022/01/21 02:49:58;;;;;;;14.95;2.60;;;2.10;99.90;;;;;;5056224;28;20052;-67
2022/01/21 02:52:27;;;;;;;11.13;2.25;;;2.10;99.90;;;;;;5056498;28;20029;-67
2022/01/21 02:54:53;;;;;;;14.20;2.35;;;2.10;99.90;;;;;;5056363;28;20085;-67
2022/01/21 02:57:19;;;;;;;12.20;2.53;;;2.10;99.90;;;;;;5056286;28;20111;-67
2022/01/21 02:59:45;;;;;;;15.13;2.78;;;2.10;99.90;;;;;;5056038;28;20017;-67
2022/01/21 03:02:11;;;;;;;16.38;2.97;;;2.10;99.90;;;;;;5056082;28;20493;-68
2022/01/21 03:04:55;;;;;;;9.60;2.35;;;2.20;99.90;;;;;;5056293;28;20033;-67
2022/01/21 03:07:21;;;;;;;16.58;2.15;;;2.20;99.90;;;;;;5056462;28;20021;-68
2022/01/21 03:09:46;;;;;;;20.25;2.67;;;2.20;99.90;;;;;;5055852;28;20493;-68
2022/01/21 03:12:12;;;;;;;8.30;1.55;;;2.30;99.90;;;;;;5056074;28;20114;-67
2022/01/21 03:14:38;;;;;;;15.32;3.03;;;2.30;99.90;;;;;;5055919;28;20456;-67
2022/01/21 03:17:03;;;;;;;14.55;2.03;;;2.30;99.90;;;;;;5055977;28;20398;-68
2022/01/21 03:19:29;;;;;;;8.23;1.88;;;2.30;99.90;;;;;;5055803;28;20116;-68
2022/01/21 03:21:54;;;;;;;15.95;3.42;;;2.20;99.90;;;;;;5055758;28;20048;-67
2022/01/21 03:24:20;;;;;;;19.27;3.03;;;2.30;99.90;;;;;;5055747;28;20027;-67
2022/01/21 03:26:45;;;;;;;19.25;3.22;;;2.30;99.90;;;;;;5042766;28;20017;-68
2022/01/21 03:29:11;;;;;;;13.98;2.60;;;2.30;99.90;;;;;;5055467;28;20431;-68
2022/01/21 03:31:36;;;;;;;15.57;1.77;;;2.40;99.90;;;;;;5055530;28;20075;-68
2022/01/21 03:34:03;;;;;;;9.25;1.98;;;2.40;99.90;;;;;;5055570;28;20389;-68
2022/01/21 03:36:29;;;;;;;15.27;2.78;;;2.40;99.90;;;;;;5054693;28;20474;-67
2022/01/21 03:38:55;;;;;;;9.98;2.92;;;2.40;99.90;;;;;;5037720;28;20017;-67
2022/01/21 03:41:21;;;;;;;15.18;2.70;;;2.40;99.90;;;;;;5055773;28;20076;-67
2022/01/21 03:43:49;;;;;;;10.32;2.00;;;2.50;99.90;;;;;;5069901;28;20029;-72
2022/01/21 03:46:14;;;;;;;13.25;1.95;;;2.50;99.90;;;;;;5052262;28;20021;-68
2022/01/21 03:48:40;;;;;;;14.02;2.33;;;2.50;99.90;;;;;;5055713;28;20032;-68
2022/01/21 03:51:05;;;;;;;9.30;2.58;;;2.50;99.90;;;;;;5055466;28;20367;-67
2022/01/21 03:53:31;;;;;;;16.67;3.05;;;2.50;99.90;;;;;;5055105;28;20024;-68
2022/01/21 03:55:57;;;;;;;8.88;2.03;;;2.50;99.90;;;;;;5055201;28;20079;-67
2022/01/21 03:58:22;;;;;;;10.15;2.30;;;2.50;99.90;;;;;;5055338;28;20028;-67
2022/01/21 04:00:51;;;;;;;17.92;2.90;;;2.50;99.90;;;;;;5054733;28;20505;-67
2022/01/21 04:03:16;;;;;;;12.60;2.50;;;2.50;99.90;;;;;;5055152;28;20366;-68
2022/01/21 04:05:42;;;;;;;13.60;2.28;;;2.40;99.90;;;;;;5055028;28;20029;-68
2022/01/21 04:08:09;;;;;;;11.98;2.33;;;2.40;99.90;;;;;;5054851;28;20025;-68
2022/01/21 04:10:35;;;;;;;11.48;1.60;;;2.40;99.90;;;;;;5054926;28;20107;-68
2022/01/21 04:13:03;;;;;;;11.65;2.97;;;2.50;99.90;;;;;;5054945;28;20027;-68
2022/01/21 04:15:28;;;;;;;12.60;3.47;;;2.50;99.90;;;;;;5055292;28;20029;-67
2022/01/21 04:17:54;;;;;;;10.85;1.80;;;2.50;99.90;;;;;;5055849;28;20034;-67
2022/01/21 04:20:20;;;;;;;17.48;1.90;;;2.50;99.90;;;;;;5054971;28;20048;-67
2022/01/21 04:22:45;;;;;;;18.92;2.42;;;2.40;99.90;;;;;;5054806;28;20025;-68
2022/01/21 04:25:11;;;;;;;11.43;1.77;;;2.50;99.90;;;;;;5054567;28;20104;-67
2022/01/21 04:27:37;;;;;;;13.18;2.47;;;2.40;99.90;;;;;;5054524;28;20104;-68
2022/01/21 04:30:06;;;;;;;15.82;2.38;;;2.40;99.90;;;;;;5054659;28;20041;-68
2022/01/21 04:32:32;;;;;;;13.32;2.35;;;2.40;99.90;;;;;;5054394;28;20021;-68
2022/01/21 04:34:57;;;;;;;20.25;2.55;;;2.40;99.90;;;;;;5054523;28;20029;-68
2022/01/21 04:37:23;;;;;;;10.40;1.77;;;2.40;99.90;;;;;;5054529;28;20025;-68
2022/01/21 04:39:51;;;;;;;15.77;2.88;;;2.40;99.90;;;;;;5055002;28;20526;-67
2022/01/21 04:47:35;;;;;;;8.48;1.65;;;2.40;99.90;;;;;;5054115;28;20440;-68
2022/01/21 04:50:00;;;;;;;20.13;2.15;;;2.40;99.90;;;;;;5036063;28;20028;-68
2022/01/21 04:52:26;;;;;;;14.65;2.05;;;2.40;99.90;;;;;;5053901;28;20118;-68
2022/01/21 04:54:52;;;;;;;11.93;1.98;;;2.40;99.90;;;;;;5054190;28;20028;-68
2022/01/21 04:57:18;;;;;;;9.02;1.67;;;2.40;99.90;;;;;;5054065;28;20021;-68
2022/01/21 04:59:45;;;;;;;12.57;2.72;;;2.40;99.90;;;;;;5054001;28;20096;-68
2022/01/21 05:02:11;;;;;;;20.45;2.72;;;2.40;99.90;;;;;;5026811;28;20033;-68
2022/01/21 05:04:37;;;;;;;15.07;2.78;;;2.40;99.90;;;;;;5036558;28;20025;-68
2022/01/21 05:07:06;;;;;;;18.70;2.63;;;2.50;99.90;;;;;;5034266;28;20415;-68
2022/01/21 05:09:34;;;;;;;10.85;2.25;;;2.50;99.90;;;;;;5033742;28;20018;-68
2022/01/21 05:12:01;;;;;;;11.77;2.08;;;2.50;99.90;;;;;;5033811;28;20025;-68
2022/01/21 05:14:45;;;;;;;9.13;1.63;;;2.50;99.90;;;;;;5033605;28;20087;-68
2022/01/21 05:17:12;;;;;;;13.48;1.60;;;2.50;99.90;;;;;;5034006;28;20025;-68
2022/01/21 05:19:38;;;;;;;15.90;1.98;;;2.50;99.90;;;;;;5033889;28;20390;-68
2022/01/21 05:22:04;;;;;;;11.07;1.77;;;2.50;99.90;;;;;;5033747;28;20029;-68
2022/01/21 05:24:29;;;;;;;10.82;1.98;;;2.50;99.90;;;;;;5033642;28;20033;-68
2022/01/21 05:27:00;;;;;;;16.30;2.95;;;2.60;99.90;;;;;;5034180;28;20148;-70
2022/01/21 05:29:28;;;;;;;32.58;3.03;;;2.60;99.90;;;;;;5033523;28;20395;-69
2022/01/21 05:31:54;;;;;;;10.95;2.22;;;2.70;99.90;;;;;;5033579;28;20030;-69
2022/01/21 05:34:19;;;;;;;12.40;2.83;;;2.70;99.90;;;;;;5050364;28;20576;-69
2022/01/21 05:36:46;;;;;;;17.13;2.50;;;2.60;99.90;;;;;;5053423;28;20041;-69
2022/01/21 05:39:12;;;;;;;19.05;2.53;;;2.70;99.90;;;;;;5052006;28;20021;-69
2022/01/21 05:41:39;;;;;;;10.80;2.45;;;2.70;99.90;;;;;;5050652;28;20028;-69
2022/01/21 05:44:12;;;;;;;18.55;2.15;;;2.70;99.90;;;;;;5044723;28;20032;-69
2022/01/21 05:46:56;;;;;;;13.35;2.10;;;2.70;99.90;;;;;;5053202;28;20021;-69
2022/01/21 05:49:26;;;;;;;13.05;1.90;;;2.70;99.90;;;;;;5055000;28;20064;-69
2022/01/21 05:52:01;;;;;;;13.77;3.13;;;2.70;99.90;;;;;;5054404;28;20029;-73
2022/01/21 05:54:26;;;;;;;14.93;2.95;;;2.60;99.90;;;;;;5053682;28;20037;-69
2022/01/21 05:56:52;;;;;;;10.02;2.20;;;2.60;99.90;;;;;;5054054;28;20106;-69
2022/01/21 05:59:18;;;;;;;9.60;2.10;;;2.60;99.90;;;;;;5054167;28;20029;-69
2022/01/21 06:01:44;;;;;;;12.45;2.17;;;2.60;99.90;;;;;;5057806;28;20025;-69
2022/01/21 06:04:10;;;;;;;12.07;2.20;;;2.50;99.90;;;;;;5052349;28;20052;-69
2022/01/21 06:06:36;;;;;;;14.95;2.28;;;2.50;99.90;;;;;;5041276;28;20459;-69
2022/01/21 06:09:04;;;;;;;11.32;1.90;;;2.60;99.90;;;;;;5051195;28;20025;-69
2022/01/21 06:11:29;;;;;;;13.20;2.42;;;2.50;99.90;;;;;;5048795;28;20101;-69
2022/01/21 06:13:55;;;;;;;18.35;2.50;;;2.50;99.90;;;;;;5048879;28;20071;-70
2022/01/21 06:16:20;;;;;;;9.43;1.95;;;2.50;99.90;;;;;;5045204;28;20018;-70
2022/01/21 06:18:46;;;;;;;22.63;3.45;;;2.60;99.90;;;;;;5045644;28;20017;-69
2022/01/21 06:21:12;;;;;;;12.07;2.15;;;2.50;99.90;;;;;;5046908;28;20027;-70
2022/01/21 06:23:38;;;;;;;15.30;2.30;;;2.50;99.90;;;;;;5033054;28;20036;-70
2022/01/21 06:26:03;;;;;;;11.98;2.15;;;2.50;99.90;;;;;;5055617;28;20013;-69
2022/01/21 06:28:29;;;;;;;14.90;3.63;;;2.50;99.90;;;;;;5058452;28;20540;-69
2022/01/21 06:30:55;;;;;;;10.27;2.17;;;2.50;99.90;;;;;;5046741;28;20087;-69
2022/01/21 06:33:21;;;;;;;14.60;2.70;;;2.60;99.90;;;;;;5050327;28;20043;-70
2022/01/21 06:35:51;;;;;;;11.70;2.22;;;2.50;99.90;;;;;;5037473;28;20490;-70
2022/01/21 06:38:18;;;;;;;20.85;2.92;;;2.60;99.90;;;;;;5040389;28;20075;-70
2022/01/21 06:40:43;;;;;;;9.75;1.90;;;2.60;99.90;;;;;;5053001;28;20091;-70
2022/01/21 06:43:09;;;;;;;19.88;2.53;;;2.60;99.90;;;;;;5040406;28;20021;-70
2022/01/21 06:45:35;;;;;;;19.58;2.45;;;2.60;99.90;;;;;;5051284;28;20525;-70
2022/01/21 06:48:04;;;;;;;14.55;2.95;;;2.50;99.90;;;;;;5044070;28;20121;-70
2022/01/21 06:50:31;;;;;;;21.23;2.55;;;2.50;99.90;;;;;;5041171;28;20495;-69
2022/01/21 06:52:56;;;;;;;12.82;2.58;;;2.50;99.90;;;;;;5025367;28;20036;-70
2022/01/21 06:55:22;;;;;;;17.65;2.47;;;2.50;99.90;;;;;;5044504;28;20391;-69
2022/01/21 06:57:48;;;;;;;17.85;2.15;;;2.50;99.90;;;;;;5052203;28;20021;-70
2022/01/21 07:00:18;;;;;;;16.85;2.55;;;2.50;99.90;;;;;;5040268;28;20036;-70
2022/01/21 07:02:44;;;;;;;11.80;2.70;;;2.50;99.90;;;;;;5033406;28;20532;-70
2022/01/21 07:05:10;;;;;;;18.15;3.35;;;2.50;99.90;;;;;;5048621;28;20048;-70
2022/01/21 07:07:36;;;;;;;13.15;2.40;;;2.50;99.90;;;;;;5044198;28;20021;-69
2022/01/21 07:10:05;;;;;;;13.52;2.63;;;2.50;99.90;;;;;;5052616;28;20025;-70
2022/01/21 07:12:34;;;;;;;16.98;2.50;;;2.50;99.90;;;;;;5047492;28;20056;-70
2022/01/21 07:15:00;;;;;;;16.83;2.70;;;2.50;99.90;;;;;;5048095;28;20433;-70
2022/01/21 07:17:26;;;;;;;13.02;2.83;;;2.50;99.90;;;;;;5045421;28;20021;-70
2022/01/21 07:19:52;;;;;;;18.30;4.03;;;2.50;99.90;;;;;;5043125;28;20021;-70
2022/01/21 07:22:17;;;;;;;11.75;2.17;;;2.50;99.90;;;;;;5047037;28;20514;-70
2022/01/21 07:24:43;;;;;;;11.23;2.55;;;2.50;99.90;;;;;;5027157;28;20061;-70
2022/01/21 07:27:09;;;;;;;15.50;2.45;;;2.60;99.90;;;;;;5050783;28;20062;-70
2022/01/21 07:29:34;;;;;;;11.65;2.70;;;2.60;99.90;;;;;;5022978;28;20389;-70
2022/01/21 07:32:00;;;;;;;14.27;3.50;;;2.60;99.90;;;;;;5028315;28;20070;-70
2022/01/21 07:34:26;;;;;;;20.40;2.92;;;2.70;99.90;;;;;;5028037;28;20049;-70
2022/01/21 07:36:54;;;;;;;15.55;2.70;;;2.70;99.90;;;;;;5051281;28;20032;-70
2022/01/21 07:39:20;;;;;;;11.95;2.22;;;2.70;99.90;;;;;;5038955;28;20032;-70
2022/01/21 07:41:46;;;;;;;15.25;3.05;;;2.70;99.90;;;;;;5046942;28;20101;-70
2022/01/21 07:44:12;;;;;;;12.70;2.08;;;2.60;99.90;;;;;;5041060;28;20041;-70
2022/01/21 07:46:39;;;;;;;19.05;3.95;;;2.70;99.90;;;;;;5049214;28;20109;-70
2022/01/21 07:49:04;;;;;;;13.02;2.65;;;2.70;99.90;;;;;;5054189;28;20116;-70
2022/01/21 07:51:30;;;;;;;9.27;2.53;;;2.80;99.90;;;;;;5058370;28;20074;-69
2022/01/21 07:53:55;;;;;;;9.48;2.58;;;2.80;99.90;;;;;;5040409;28;20036;-69
2022/01/21 07:56:21;;;;;;;13.85;2.78;;;2.70;99.90;;;;;;5058764;28;20029;-70
2022/01/21 07:58:47;;;;;;;18.00;2.67;;;2.70;99.90;;;;;;5059131;28;20082;-69
2022/01/21 08:01:12;;;;;;;14.73;2.33;;;2.70;99.90;;;;;;5037491;28;20029;-69
2022/01/21 08:03:38;;;;;;;21.20;3.47;;;2.70;99.90;;;;;;5056010;28;20075;-69
2022/01/21 08:06:05;;;;;;;10.07;2.20;;;2.70;99.90;;;;;;5057303;28;20024;-69
2022/01/21 08:08:31;;;;;;;15.45;2.33;;;2.80;99.90;;;;;;5057872;28;20471;-69
2022/01/21 08:10:56;;;;;;;17.23;2.53;;;2.80;99.90;;;;;;5056339;28;20059;-69
2022/01/21 08:13:22;;;;;;;14.13;2.53;;;2.90;99.90;;;;;;5057252;28;20096;-69
2022/01/21 08:15:48;;;;;;;11.57;2.08;;;2.80;99.90;;;;;;5040402;28;20035;-69
2022/01/21 08:18:15;;;;;;;16.73;3.08;;;2.90;99.90;;;;;;5056700;28;20032;-69
2022/01/21 08:20:42;;;;;;;19.95;2.97;;;2.90;99.90;;;;;;5055940;28;20020;-68
2022/01/21 08:23:08;;;;;;;9.80;2.15;;;2.90;99.90;;;;;;5037717;28;20021;-69
2022/01/21 08:25:34;;;;;;;15.23;3.72;;;3.00;99.90;;;;;;5059109;28;20077;-69
2022/01/21 08:27:59;;;;;;;19.45;3.65;;;3.00;99.90;;;;;;5060083;28;20040;-69
2022/01/21 08:30:25;;;;;;;19.08;3.33;;;3.00;99.90;;;;;;5056766;28;20033;-69
2022/01/21 08:32:50;;;;;;;19.05;3.42;;;3.10;99.90;;;;;;5059530;28;20029;-69
2022/01/21 08:35:16;;;;;;;9.25;2.67;;;3.10;99.90;;;;;;5057201;28;20390;-69
2022/01/21 08:37:42;;;;;;;17.63;2.78;;;3.10;99.90;;;;;;5056774;28;20025;-69
2022/01/21 08:40:09;;;;;;;11.85;2.72;;;3.10;99.90;;;;;;5059834;28;20055;-69
2022/01/21 08:42:34;;;;;;;16.75;3.38;;;3.10;99.90;;;;;;5057854;28;20118;-69
2022/01/21 08:45:00;;;;;;;17.38;3.03;;;3.20;99.90;;;;;;5057804;28;20482;-69
2022/01/21 08:47:25;;;;;;;10.82;2.97;;;3.20;99.90;;;;;;5057193;28;20032;-69
2022/01/21 08:49:52;;;;;;;12.38;2.47;;;3.20;99.90;;;;;;5062659;28;20025;-68
2022/01/21 08:52:23;;;;;;;14.95;3.53;;;3.20;99.90;;;;;;5060376;28;20025;-69
2022/01/21 08:54:50;;;;;;;13.60;2.53;;;3.40;99.90;;;;;;5057310;28;20021;-69
2022/01/21 08:57:16;;;;;;;16.25;3.00;;;3.40;99.90;;;;;;5056208;28;20028;-69
2022/01/21 08:59:42;;;;;;;15.40;2.70;;;3.50;99.90;;;;;;5038218;28;20021;-69
2022/01/21 09:02:09;;;;;;;18.30;3.20;;;3.60;99.90;;;;;;5057814;28;20053;-68
2022/01/21 09:04:35;;;;;;;12.27;3.17;;;3.60;99.90;;;;;;5060158;28;20025;-69
2022/01/21 09:07:01;;;;;;;11.18;2.85;;;3.60;99.90;;;;;;5044511;28;20025;-68
2022/01/21 09:09:28;;;;;;;13.27;3.72;;;3.70;99.90;;;;;;5060328;28;20021;-69
2022/01/21 09:11:59;;;;;;;17.65;2.92;;;3.70;99.90;;;;;;5057778;28;20439;-69
2022/01/21 09:14:28;;;;;;;19.05;3.25;;;3.70;99.90;;;;;;5039160;28;20478;-69
2022/01/21 09:16:54;;;;;;;13.20;3.20;;;3.70;99.90;;;;;;5040462;28;20021;-69
2022/01/21 09:19:20;;;;;;;15.63;3.40;;;3.70;99.90;;;;;;5060445;28;20017;-68
2022/01/21 09:21:51;;;;;;;12.18;2.85;;;3.70;99.90;;;;;;5061929;28;20056;-68
2022/01/21 09:24:17;;;;;;;15.80;2.47;;;3.80;99.90;;;;;;5059205;28;20013;-68
2022/01/21 09:26:43;;;;;;;14.18;2.15;;;3.80;99.90;;;;;;5056461;28;20040;-68
2022/01/21 09:29:08;;;;;;;10.38;2.15;;;3.70;99.90;;;;;;5055160;28;20024;-69
2022/01/21 09:31:35;;;;;;;12.50;2.00;;;3.70;99.90;;;;;;5055906;28;20094;-68
2022/01/21 09:34:00;;;;;;;14.52;2.38;;;3.80;99.90;;;;;;5054925;28;20108;-68
2022/01/21 09:36:26;;;;;;;15.43;2.30;;;3.80;99.90;;;;;;5054504;28;20104;-69
2022/01/21 09:38:51;;;;;;;8.45;2.55;;;3.90;99.90;;;;;;5054605;28;20025;-68
2022/01/21 09:41:18;;;;;;;10.70;1.88;;;3.90;99.90;;;;;;5054782;28;20104;-68
2022/01/21 09:43:47;;;;;;;17.50;2.17;;;3.90;99.90;;;;;;5037645;28;20029;-68
2022/01/21 09:46:14;;;;;;;11.95;2.10;;;4.00;99.90;;;;;;5054716;28;20105;-69
2022/01/21 09:48:53;;;;;;;10.10;2.33;;;4.00;99.90;;;;;;5049412;28;20025;-68
2022/01/21 09:51:19;;;;;;;11.55;2.53;;;4.10;99.90;;;;;;5034078;28;20030;-68
2022/01/21 09:53:45;;;;;;;16.25;2.33;;;4.20;99.90;;;;;;5034416;28;20022;-68
2022/01/21 09:56:14;;;;;;;12.38;2.88;;;4.30;99.90;;;;;;5034169;28;20503;-69
2022/01/21 09:58:43;;;;;;;15.70;3.42;;;4.40;99.90;;;;;;5034398;28;20083;-68
2022/01/21 10:01:09;;;;;;;15.32;2.45;;;4.40;99.90;;;;;;5016424;28;20021;-68
2022/01/21 10:03:35;;;;;;;13.50;2.25;;;4.50;99.90;;;;;;5045137;28;20062;-68
2022/01/21 10:06:04;;;;;;;12.63;2.97;;;4.50;99.90;;;;;;5053672;28;20108;-69
2022/01/21 10:08:31;;;;;;;16.13;2.72;;;4.50;99.90;;;;;;5053835;28;20032;-68
2022/01/21 10:10:57;;;;;;;14.73;2.58;;;4.40;99.90;;;;;;5054126;28;20399;-69
2022/01/21 10:13:23;;;;;;;11.23;2.20;;;4.50;99.90;;;;;;5055326;28;20033;-69
2022/01/21 10:15:49;;;;;;;15.00;2.40;;;4.40;99.90;;;;;;5054333;28;20402;-69
2022/01/21 10:18:20;;;;;;;7.05;2.38;;;4.50;99.90;;;;;;5053759;28;20048;-69
2022/01/21 10:20:55;;;;;;;10.88;2.40;;;4.60;99.90;;;;;;5054167;28;20028;-69
2022/01/21 10:23:21;;;;;;;19.15;2.95;;;4.60;99.90;;;;;;5054246;28;20017;-69
2022/01/21 10:26:05;;;;;;;22.70;3.13;;;4.50;99.90;;;;;;5054737;28;20036;-69
2022/01/21 10:28:31;;;;;;;11.15;2.72;;;4.60;99.90;;;;;;5054562;28;20029;-69
2022/01/21 10:31:18;;;;;;;17.15;3.55;;;4.70;99.90;;;;;;5055285;28;20033;-69
2022/01/21 10:33:49;;;;;;;17.00;2.92;;;4.60;99.90;;;;;;5055772;28;20048;-69
2022/01/21 10:36:27;;;;;;;16.30;2.53;;;4.70;99.90;;;;;;5057590;28;20021;-69
2022/01/21 10:39:06;;;;;;;16.13;2.20;;;4.70;99.90;;;;;;5056458;28;20513;-69
2022/01/21 10:41:34;;;;;;;9.43;2.53;;;4.70;99.90;;;;;;5054507;28;20036;-69
2022/01/21 10:44:08;;;;;;;15.98;2.50;;;4.80;99.90;;;;;;5053926;28;20025;-69
2022/01/21 10:46:35;;;;;;;14.80;3.38;;;4.90;99.90;;;;;;5055241;28;20025;-69
2022/01/21 10:49:03;;;;;;;22.10;4.50;;;5.00;99.90;;;;;;5058656;28;20127;-69
2022/01/21 10:51:33;;;;;;;24.33;4.70;;;5.00;99.90;;;;;;5058653;28;20096;-69
2022/01/21 10:54:12;;;;;;;21.40;4.30;;;5.00;99.90;;;;;;5057730;28;20025;-68
2022/01/21 10:56:38;;;;;;;14.02;4.18;;;5.00;99.90;;;;;;5057909;28;20498;-68
2022/01/21 10:59:03;;;;;;;13.95;3.08;;;5.00;99.90;;;;;;5057589;28;20028;-68
2022/01/21 11:01:30;;;;;;;15.45;3.10;;;5.00;99.90;;;;;;5058016;28;20090;-69
2022/01/21 11:04:04;;;;;;;10.40;2.72;;;5.00;99.90;;;;;;5057971;28;20040;-69
2022/01/21 11:06:45;;;;;;;15.88;2.63;;;4.90;99.90;;;;;;5057722;28;20079;-68
2022/01/21 11:09:20;;;;;;;18.38;3.22;;;4.80;99.90;;;;;;5057170;28;20049;-68
2022/01/21 11:11:48;;;;;;;20.63;6.10;;;4.70;99.90;;;;;;5056995;28;20151;-68
2022/01/21 11:14:19;;;;;;;24.83;4.30;;;4.80;99.90;;;;;;5056837;28;20025;-68
2022/01/21 11:16:47;;;;;;;24.80;4.63;;;4.70;99.90;;;;;;5052630;28;20053;-68
2022/01/21 11:19:23;;;;;;;18.40;4.40;;;4.70;99.90;;;;;;5052044;28;20021;-68
2022/01/21 11:21:56;;;;;;;21.48;5.18;;;4.60;99.90;;;;;;5059762;28;20028;-68
2022/01/21 11:24:24;;;;;;;16.65;3.67;;;4.60;99.90;;;;;;5058947;28;20028;-68
2022/01/21 11:27:13;;;;;;;18.95;4.05;;;4.60;99.90;;;;;;5056521;28;20112;-68
2022/01/21 11:29:41;;;;;;;18.33;3.58;;;4.70;99.90;;;;;;5056207;28;20032;-69
2022/01/21 11:32:07;;;;;;;21.10;4.10;;;4.80;99.90;;;;;;5040782;28;20087;-69
2022/01/21 11:34:33;;;;;;;17.88;3.97;;;4.80;99.90;;;;;;5036561;28;20379;-69
2022/01/21 11:36:59;;;;;;;16.17;3.58;;;4.80;99.90;;;;;;5036728;28;20084;-69
2022/01/21 11:39:25;;;;;;;22.88;4.47;;;4.80;99.90;;;;;;5047864;28;20037;-69
2022/01/21 11:41:54;;;;;;;20.75;3.83;;;4.80;99.90;;;;;;5056978;28;20098;-69
2022/01/21 11:44:24;;;;;;;14.82;3.92;;;4.80;99.90;;;;;;5056815;28;20028;-68
2022/01/21 11:47:13;;;;;;;18.60;4.50;;;4.90;99.90;;;;;;5053625;28;20579;-68
2022/01/21 11:49:54;;;;;;;18.10;4.88;;;4.90;99.90;;;;;;5033567;28;20388;-69
2022/01/21 11:52:20;;;;;;;20.45;4.30;;;4.90;99.90;;;;;;5050796;28;20029;-68
2022/01/21 11:54:47;;;;;;;17.95;3.72;;;4.80;99.90;;;;;;5020136;28;20041;-68
2022/01/21 11:57:14;;;;;;;21.77;4.22;;;4.90;99.90;;;;;;5053517;28;20031;-68
2022/01/21 12:02:18;;;;;;;26.30;4.43;;;4.90;99.90;;;;;;5037582;28;20017;-68
2022/01/21 12:04:52;;;;;;;16.52;13.18;;;4.90;99.90;;;;;;5019884;28;20029;-68
2022/01/21 12:07:48;;;;;;;30.63;4.90;;;4.90;99.90;;;;;;5019047;28;20051;-69
2022/01/21 12:10:22;;;;;;;24.52;4.25;;;5.00;99.90;;;;;;5037052;28;20032;-69
2022/01/21 12:12:56;;;;;;;22.67;5.30;;;5.10;99.90;;;;;;5037051;28;20034;-69
2022/01/21 12:15:34;;;;;;;31.02;4.68;;;5.10;99.90;;;;;;5075452;22;20090;-71
2022/01/21 12:21:04;;;;;;;19.27;4.85;;;5.20;99.90;;;;;;5074310;28;20016;-71
2022/01/21 12:23:41;;;;;;;24.05;5.82;;;5.20;99.90;;;;;;5073859;28;20051;-71
2022/01/21 12:26:16;;;;;;;21.83;4.82;;;5.30;99.90;;;;;;5057669;28;20092;-71
2022/01/21 12:28:44;;;;;;;18.83;4.35;;;5.30;99.90;;;;;;5054343;28;20032;-70
2022/01/21 12:31:12;;;;;;;21.92;4.05;;;5.30;99.90;;;;;;5054196;28;20029;-70
2022/01/21 12:33:56;;;;;;;20.13;3.90;;;5.40;99.90;;;;;;5052897;28;20052;-70
2022/01/21 12:36:26;;;;;;;24.83;4.10;;;5.40;99.90;;;;;;5054305;28;20025;-70
2022/01/21 12:41:17;;;;;;;15.00;3.13;;;5.50;99.90;;;;;;5054644;28;20025;-70
2022/01/21 12:43:47;;;;;;;19.27;3.58;;;5.50;99.90;;;;;;5042425;28;20537;-70
2022/01/21 12:46:14;;;;;;;26.85;3.47;;;5.50;99.90;;;;;;5025954;28;20549;-70
2022/01/21 12:48:41;;;;;;;14.98;3.38;;;5.60;99.90;;;;;;5041126;28;20024;-69
2022/01/21 12:51:16;;;;;;;18.63;4.57;;;5.60;99.90;;;;;;5025419;28;20025;-71
2022/01/21 12:56:44;;;;;;;26.52;4.45;;;5.80;99.90;;;;;;5052818;28;20055;-71
2022/01/21 12:59:17;;;;;;;25.95;4.75;;;5.90;99.90;;;;;;5051629;28;20112;-71
2022/01/21 13:01:44;;;;;;;15.23;3.45;;;5.90;99.90;;;;;;5054092;28;20501;-71
2022/01/21 13:04:41;;;;;;;21.85;3.38;;;6.00;99.90;;;;;;5056670;28;20029;-73
2022/01/21 13:07:36;;;;;;;19.05;3.53;;;5.90;99.90;;;;;;5055478;28;20036;-74
2022/01/21 13:10:24;;;;;;;18.80;2.75;;;5.90;99.90;;;;;;5031502;28;20077;-71
2022/01/21 13:15:46;;;;;;;15.30;3.10;;;5.90;99.90;;;;;;5056808;28;20104;-74
2022/01/21 13:18:19;;;;;;;22.75;3.17;;;6.00;99.90;;;;;;5042232;28;20021;-74
2022/01/21 13:20:51;;;;;;;19.27;2.88;;;6.10;99.90;;;;;;5036500;28;20497;-74
2022/01/21 13:23:39;;;;;;;24.73;3.97;;;6.10;99.90;;;;;;5053619;28;20037;-72
2022/01/21 13:26:23;;;;;;;20.15;2.78;;;6.10;99.90;;;;;;5054456;28;20021;-73
2022/01/21 13:28:58;;;;;;;14.32;3.45;;;6.10;99.90;;;;;;5053864;28;20104;-73
2022/01/21 13:31:24;;;;;;;21.42;3.60;;;6.10;99.90;;;;;;5054171;28;20077;-73
2022/01/21 13:33:50;;;;;;;12.85;2.72;;;6.20;99.90;;;;;;5054079;28;20074;-74
2022/01/21 13:36:38;;;;;;;15.93;3.15;;;6.20;99.90;;;;;;5053698;28;20032;-72
2022/01/21 13:39:19;;;;;;;20.73;3.38;;;6.10;99.90;;;;;;5053861;28;20542;-74
2022/01/21 13:41:50;;;;;;;19.77;3.80;;;6.20;99.90;;;;;;5055254;28;20424;-74
2022/01/21 13:44:42;;;;;;;17.23;4.20;;;6.20;99.90;;;;;;5055074;28;20037;-74
2022/01/21 13:47:38;;;;;;;28.63;3.92;;;6.10;99.90;;;;;;5055080;28;20024;-74
2022/01/21 13:50:25;;;;;;;19.55;3.67;;;6.10;99.90;;;;;;5054588;28;20108;-72